createdAt,value
2018-07-17T00:00:32.707Z,40.39
2018-07-17T00:01:32.704Z,40.19
2018-07-17T00:02:32.749Z,40.80
2018-07-17T00:03:32.677Z,40.69
2018-07-17T00:04:32.669Z,41.69
2018-07-17T00:05:32.655Z,41.60
2018-07-17T00:06:32.641Z,41.80
2018-07-17T00:07:32.694Z,41.02
2018-07-17T00:08:32.621Z,40.11
2018-07-17T00:09:32.639Z,40.89
2018-07-17T00:10:32.600Z,41.60
2018-07-17T00:11:32.588Z,41.99
2018-07-17T00:12:32.638Z,41.89
2018-07-17T00:13:32.571Z,42.21
2018-07-17T00:14:32.555Z,41.82
2018-07-17T00:15:32.541Z,42.49
2018-07-17T00:16:32.533Z,42.19
2018-07-17T00:17:32.585Z,42.21
2018-07-17T00:18:32.514Z,42.32
2018-07-17T00:19:33.406Z,42.10
2018-07-17T00:20:32.491Z,42.21
2018-07-17T00:21:32.481Z,42.40
2018-07-17T00:22:32.530Z,42.52
2018-07-17T00:23:32.456Z,42.21
2018-07-17T00:24:32.448Z,42.02
2018-07-17T00:25:32.434Z,42.21
2018-07-17T00:26:32.423Z,42.41
2018-07-17T00:27:32.477Z,42.41
2018-07-17T00:28:32.403Z,42.11
2018-07-17T00:29:32.408Z,42.71
2018-07-17T00:30:32.381Z,42.82
2018-07-17T00:31:32.370Z,42.11
2018-07-17T00:32:32.430Z,42.11
2018-07-17T00:33:32.358Z,42.13
2018-07-17T00:34:32.333Z,42.24
2018-07-17T00:35:32.328Z,42.74
2018-07-17T00:36:32.316Z,42.93
2018-07-17T00:37:32.378Z,43.13
2018-07-17T00:38:32.290Z,42.63
2018-07-17T00:39:32.281Z,42.03
2018-07-17T00:40:32.914Z,42.93
2018-07-17T00:41:32.267Z,42.13
2018-07-17T00:42:32.317Z,42.35
2018-07-17T00:43:32.240Z,42.93
2018-07-17T00:44:32.232Z,41.75
2018-07-17T00:45:32.225Z,42.93
2018-07-17T00:46:32.207Z,43.16
2018-07-17T00:47:32.257Z,43.46
2018-07-17T00:48:32.185Z,43.16
2018-07-17T00:49:32.174Z,43.76
2018-07-17T00:50:32.162Z,43.33
2018-07-17T00:51:32.151Z,43.13
2018-07-17T00:52:32.212Z,43.76
2018-07-17T00:53:32.145Z,42.96
2018-07-17T00:54:32.120Z,43.96
2018-07-17T00:55:32.136Z,44.24
2018-07-17T00:56:32.104Z,43.84
2018-07-17T00:57:32.148Z,43.76
2018-07-17T00:58:32.075Z,44.93
2018-07-17T00:59:32.060Z,45.56
2018-07-17T01:00:32.050Z,45.43
2018-07-17T01:01:32.910Z,46.64
2018-07-17T01:02:32.107Z,46.54
2018-07-17T01:03:32.024Z,46.94
2018-07-17T01:04:32.016Z,47.84
2018-07-17T01:05:32.002Z,47.94
2018-07-17T01:06:31.991Z,47.24
2018-07-17T01:07:32.046Z,49.24
2018-07-17T01:08:31.977Z,48.84
2018-07-17T01:09:31.959Z,49.94
2018-07-17T01:10:31.947Z,50.64
2018-07-17T01:11:31.999Z,50.44
2018-07-17T01:12:31.922Z,50.74
2018-07-17T01:13:31.979Z,49.44
2018-07-17T01:14:31.908Z,51.14
2018-07-17T01:15:31.902Z,50.44
2018-07-17T01:16:31.886Z,50.64
2018-07-17T01:17:31.872Z,51.34
2018-07-17T01:18:31.930Z,49.64
2018-07-17T01:19:31.848Z,51.54
2018-07-17T01:20:31.844Z,51.46
2018-07-17T01:21:31.831Z,51.37
2018-07-17T01:22:33.422Z,51.44
2018-07-17T01:23:31.870Z,50.74
2018-07-17T01:24:31.800Z,51.44
2018-07-17T01:25:31.786Z,50.87
2018-07-17T01:26:31.776Z,51.57
2018-07-17T01:27:31.764Z,51.37
2018-07-17T01:28:31.815Z,50.07
2018-07-17T01:29:31.743Z,51.94
2018-07-17T01:30:31.728Z,51.46
2018-07-17T01:31:31.718Z,51.57
2018-07-17T01:32:31.709Z,50.96
2018-07-17T01:33:31.759Z,50.87
2018-07-17T01:34:31.687Z,51.67
2018-07-17T01:35:31.676Z,51.46
2018-07-17T01:36:31.665Z,51.87
2018-07-17T01:37:31.659Z,52.27
2018-07-17T01:38:31.740Z,51.77
2018-07-17T01:39:31.638Z,51.46
2018-07-17T01:40:31.623Z,51.69
2018-07-17T01:41:31.612Z,52.09
2018-07-17T01:42:31.606Z,52.19
2018-07-17T01:43:31.979Z,52.80
2018-07-17T01:44:31.581Z,52.09
2018-07-17T01:45:31.570Z,51.99
2018-07-17T01:46:31.559Z,52.29
2018-07-17T01:47:31.549Z,50.81
2018-07-17T01:48:31.600Z,51.89
2018-07-17T01:49:31.526Z,51.59
2018-07-17T01:50:31.515Z,51.79
2018-07-17T01:51:31.511Z,51.62
2018-07-17T01:52:31.501Z,52.29
2018-07-17T01:53:31.550Z,52.39
2018-07-17T01:54:31.474Z,52.12
2018-07-17T01:55:31.462Z,52.29
2018-07-17T01:56:31.451Z,51.51
2018-07-17T01:57:31.443Z,50.89
2018-07-17T01:58:31.498Z,51.19
2018-07-17T01:59:31.418Z,50.59
2018-07-17T02:00:31.408Z,51.62
2018-07-17T02:01:31.401Z,51.01
2018-07-17T02:02:31.393Z,50.51
2018-07-17T02:03:31.443Z,50.81
2018-07-17T02:04:31.906Z,50.62
2018-07-17T02:05:31.357Z,51.32
2018-07-17T02:06:31.354Z,51.82
2018-07-17T02:07:31.335Z,51.82
2018-07-17T02:08:31.388Z,51.51
2018-07-17T02:09:31.313Z,50.24
2018-07-17T02:10:31.305Z,50.92
2018-07-17T02:11:31.294Z,50.81
2018-07-17T02:12:31.285Z,52.44
2018-07-17T02:13:31.335Z,52.92
2018-07-17T02:14:31.260Z,52.62
2018-07-17T02:15:31.250Z,53.45
2018-07-17T02:16:31.238Z,54.15
2018-07-17T02:17:31.227Z,55.25
2018-07-17T02:18:31.283Z,53.14
2018-07-17T02:19:31.207Z,55.58
2018-07-17T02:20:31.199Z,54.77
2018-07-17T02:21:31.185Z,53.87
2018-07-17T02:22:31.174Z,54.45
2018-07-17T02:23:31.225Z,53.17
2018-07-17T02:24:31.153Z,54.65
2018-07-17T02:25:31.899Z,53.07
2018-07-17T02:26:31.131Z,54.35
2018-07-17T02:27:31.119Z,55.05
2018-07-17T02:28:31.173Z,53.17
2018-07-17T02:29:31.100Z,54.25
2018-07-17T02:30:31.090Z,53.45
2018-07-17T02:31:31.078Z,54.55
2018-07-17T02:32:31.066Z,53.17
2018-07-17T02:33:31.114Z,52.24
2018-07-17T02:34:31.050Z,54.95
2018-07-17T02:35:31.033Z,55.15
2018-07-17T02:36:31.022Z,56.48
2018-07-17T02:37:31.020Z,55.35
2018-07-17T02:38:31.063Z,55.25
2018-07-17T02:39:30.991Z,54.95
2018-07-17T02:40:30.978Z,56.08
2018-07-17T02:41:30.967Z,55.38
2018-07-17T02:42:30.972Z,55.38
2018-07-17T02:43:31.008Z,55.08
2018-07-17T02:44:30.934Z,55.28
2018-07-17T02:45:30.992Z,55.58
2018-07-17T02:46:31.906Z,55.28
2018-07-17T02:47:30.903Z,55.28
2018-07-17T02:48:30.962Z,53.97
2018-07-17T02:49:30.882Z,54.97
2018-07-17T02:50:30.872Z,55.47
2018-07-17T02:51:30.859Z,54.88
2018-07-17T02:52:30.845Z,54.58
2018-07-17T02:53:30.933Z,54.77
2018-07-17T02:54:30.890Z,55.00
2018-07-17T02:55:30.815Z,54.10
2018-07-17T02:56:39.429Z,50.29
2018-07-17T02:57:38.332Z,52.80
2018-07-17T02:58:39.712Z,54.60
2018-07-17T02:59:30.773Z,53.20
2018-07-17T03:00:30.760Z,53.20
2018-07-17T03:01:30.755Z,54.30
2018-07-17T03:02:30.741Z,54.20
2018-07-17T03:03:30.732Z,55.30
2018-07-17T03:04:38.320Z,55.60
2018-07-17T03:05:38.872Z,56.81
2018-07-17T03:06:38.784Z,55.23
2018-07-17T03:07:39.302Z,55.23
2018-07-17T03:08:30.677Z,55.73
2018-07-17T03:09:30.734Z,56.74
2018-07-17T03:10:30.655Z,56.84
2018-07-17T03:11:30.646Z,55.93
2018-07-17T03:12:30.646Z,57.94
2018-07-17T03:13:30.625Z,57.34
2018-07-17T03:14:30.674Z,56.93
2018-07-17T03:15:30.600Z,57.14
2018-07-17T03:16:30.590Z,57.14
2018-07-17T03:17:30.580Z,56.43
2018-07-17T03:18:30.569Z,55.33
2018-07-17T03:19:30.619Z,57.24
2018-07-17T03:20:30.547Z,56.63
2018-07-17T03:21:30.549Z,56.74
2018-07-17T03:22:30.527Z,56.54
2018-07-17T03:23:30.518Z,57.14
2018-07-17T03:24:30.588Z,56.54
2018-07-17T03:25:30.491Z,57.64
2018-07-17T03:26:30.480Z,56.54
2018-07-17T03:27:30.472Z,57.54
2018-07-17T03:28:30.459Z,56.43
2018-07-17T03:29:30.722Z,56.54
2018-07-17T03:30:30.442Z,56.74
2018-07-17T03:31:30.430Z,56.84
2018-07-17T03:32:30.433Z,57.34
2018-07-17T03:33:30.421Z,56.51
2018-07-17T03:34:30.465Z,55.91
2018-07-17T03:35:30.394Z,56.41
2018-07-17T03:36:30.393Z,56.71
2018-07-17T03:37:30.364Z,57.41
2018-07-17T03:38:30.356Z,56.13
2018-07-17T03:39:30.411Z,55.20
2018-07-17T03:40:30.336Z,55.20
2018-07-17T03:41:30.320Z,56.61
2018-07-17T03:42:30.312Z,56.30
2018-07-17T03:43:30.311Z,56.30
2018-07-17T03:44:30.356Z,56.51
2018-07-17T03:45:30.276Z,55.40
2018-07-17T03:46:30.282Z,56.01
2018-07-17T03:47:30.262Z,54.90
2018-07-17T03:48:30.246Z,55.40
2018-07-17T03:49:30.300Z,55.51
2018-07-17T03:50:32.145Z,55.20
2018-07-17T03:51:30.220Z,55.30
2018-07-17T03:52:30.204Z,55.91
2018-07-17T03:53:30.201Z,55.40
2018-07-17T03:54:30.243Z,56.10
2018-07-17T03:55:30.176Z,55.91
2018-07-17T03:56:30.160Z,55.60
2018-07-17T03:57:30.149Z,55.20
2018-07-17T03:58:30.145Z,55.30
2018-07-17T03:59:30.195Z,55.71
2018-07-17T04:00:30.118Z,55.30
2018-07-17T04:01:30.105Z,56.51
2018-07-17T04:02:30.093Z,55.30
2018-07-17T04:03:30.082Z,56.41
2018-07-17T04:04:30.132Z,55.71
2018-07-17T04:05:30.071Z,55.03
2018-07-17T04:06:30.049Z,56.41
2018-07-17T04:07:30.046Z,56.10
2018-07-17T04:08:30.030Z,55.10
2018-07-17T04:09:30.082Z,54.70
2018-07-17T04:10:30.009Z,54.30
2018-07-17T04:11:30.007Z,53.90
2018-07-17T04:12:32.646Z,55.40
2018-07-17T04:13:30.093Z,55.30
2018-07-17T04:14:30.035Z,55.30
2018-07-17T04:15:29.955Z,55.40
2018-07-17T04:16:29.941Z,53.39
2018-07-17T04:17:29.932Z,54.10
2018-07-17T04:18:29.921Z,55.30
2018-07-17T04:19:29.979Z,54.80
2018-07-17T04:20:29.899Z,55.30
2018-07-17T04:21:29.888Z,56.30
2018-07-17T04:22:29.877Z,55.30
2018-07-17T04:23:29.887Z,55.10
2018-07-17T04:24:29.923Z,55.28
2018-07-17T04:25:29.844Z,55.71
2018-07-17T04:26:29.833Z,56.38
2018-07-17T04:27:29.840Z,55.28
2018-07-17T04:28:29.813Z,56.08
2018-07-17T04:29:29.874Z,56.10
2018-07-17T04:30:29.794Z,55.38
2018-07-17T04:31:29.783Z,55.00
2018-07-17T04:32:29.772Z,56.68
2018-07-17T04:33:29.761Z,54.07
2018-07-17T04:34:30.219Z,54.88
2018-07-17T04:35:29.739Z,53.80
2018-07-17T04:36:29.728Z,54.97
2018-07-17T04:37:29.719Z,54.88
2018-07-17T04:38:29.778Z,55.88
2018-07-17T04:39:29.761Z,55.40
2018-07-17T04:40:29.747Z,54.97
2018-07-17T04:41:29.680Z,54.88
2018-07-17T04:42:29.664Z,55.78
2018-07-17T04:43:29.653Z,54.68
2018-07-17T04:44:30.144Z,55.38
2018-07-17T04:45:29.703Z,54.77
2018-07-17T04:46:29.623Z,54.88
2018-07-17T04:47:29.609Z,54.27
2018-07-17T04:48:29.598Z,56.28
2018-07-17T04:49:29.591Z,55.88
2018-07-17T04:50:29.647Z,56.38
2018-07-17T04:51:29.567Z,56.38
2018-07-17T04:52:29.560Z,56.48
2018-07-17T04:53:29.551Z,56.38
2018-07-17T04:54:29.536Z,55.28
2018-07-17T04:55:29.724Z,57.18
2018-07-17T04:56:29.518Z,56.88
2018-07-17T04:57:29.505Z,54.88
2018-07-17T04:58:29.495Z,54.97
2018-07-17T04:59:29.484Z,55.38
2018-07-17T05:00:29.540Z,55.78
2018-07-17T05:01:29.519Z,57.08
2018-07-17T05:02:29.451Z,57.18
2018-07-17T05:03:29.443Z,56.38
2018-07-17T05:04:29.432Z,55.38
2018-07-17T05:05:29.497Z,54.68
2018-07-17T05:06:29.407Z,55.35
2018-07-17T05:07:29.400Z,55.85
2018-07-17T05:08:29.384Z,55.15
2018-07-17T05:09:29.381Z,55.15
2018-07-17T05:10:29.426Z,57.26
2018-07-17T05:11:29.381Z,57.33
2018-07-17T05:12:29.448Z,56.93
2018-07-17T05:13:29.377Z,55.22
2018-07-17T05:14:29.424Z,54.43
2018-07-17T05:15:29.394Z,53.59
2018-07-17T05:16:30.168Z,54.50
2018-07-17T05:17:29.289Z,55.00
2018-07-17T05:18:29.278Z,53.80
2018-07-17T05:19:29.276Z,52.09
2018-07-17T05:20:29.323Z,54.67
2018-07-17T05:21:29.248Z,54.97
2018-07-17T05:22:29.239Z,54.47
2018-07-17T05:23:29.223Z,54.17
2018-07-17T05:24:29.214Z,53.37
2018-07-17T05:25:29.269Z,52.84
2018-07-17T05:26:29.190Z,55.07
2018-07-17T05:27:29.179Z,54.87
2018-07-17T05:28:29.168Z,53.05
2018-07-17T05:29:29.153Z,53.47
2018-07-17T05:30:29.214Z,54.14
2018-07-17T05:31:29.145Z,54.47
2018-07-17T05:32:29.128Z,52.17
2018-07-17T05:33:29.119Z,53.24
2018-07-17T05:34:29.103Z,52.14
2018-07-17T05:35:29.221Z,52.94
2018-07-17T05:36:29.090Z,52.64
2018-07-17T05:37:29.635Z,53.64
2018-07-17T05:38:29.056Z,53.94
2018-07-17T05:39:29.048Z,51.92
2018-07-17T05:40:29.108Z,52.14
2018-07-17T05:41:29.029Z,54.12
2018-07-17T05:42:29.022Z,54.22
2018-07-17T05:43:29.010Z,52.42
2018-07-17T05:44:28.998Z,52.92
2018-07-17T05:45:29.047Z,52.82
2018-07-17T05:46:29.047Z,53.12
2018-07-17T05:47:28.965Z,53.22
2018-07-17T05:48:28.953Z,52.92
2018-07-17T05:49:28.948Z,52.72
2018-07-17T05:50:28.997Z,53.12
2018-07-17T05:51:28.923Z,52.69
2018-07-17T05:52:28.920Z,52.82
2018-07-17T05:53:28.903Z,52.80
2018-07-17T05:54:28.890Z,52.49
2018-07-17T05:55:28.941Z,53.39
2018-07-17T05:56:28.868Z,53.30
2018-07-17T05:57:28.868Z,52.69
2018-07-17T05:58:29.642Z,52.37
2018-07-17T05:59:28.837Z,51.87
2018-07-17T06:00:28.893Z,52.77
2018-07-17T06:01:28.818Z,52.44
2018-07-17T06:02:28.807Z,51.94
2018-07-17T06:03:28.837Z,51.75
2018-07-17T06:04:28.782Z,51.84
2018-07-17T06:05:28.835Z,52.44
2018-07-17T06:06:28.760Z,51.94
2018-07-17T06:07:28.748Z,51.92
2018-07-17T06:08:28.735Z,51.62
2018-07-17T06:09:28.730Z,51.82
2018-07-17T06:10:28.783Z,51.32
2018-07-17T06:11:28.710Z,51.52
2018-07-17T06:12:28.697Z,51.10
2018-07-17T06:13:28.690Z,51.89
2018-07-17T06:14:28.680Z,50.60
2018-07-17T06:15:28.740Z,50.87
2018-07-17T06:16:28.656Z,50.57
2018-07-17T06:17:28.679Z,50.57
2018-07-17T06:18:28.638Z,49.55
2018-07-17T06:19:33.141Z,49.95
2018-07-17T06:20:28.678Z,50.05
2018-07-17T06:21:28.664Z,50.13
2018-07-17T06:22:36.797Z,49.23
2018-07-17T06:23:28.668Z,48.91
2018-07-17T06:24:28.674Z,50.10
2018-07-17T06:25:28.569Z,49.51
2018-07-17T06:26:28.620Z,50.20
2018-07-17T06:27:36.874Z,48.38
2018-07-17T06:28:28.539Z,48.79
2018-07-17T06:29:28.517Z,47.56
2018-07-17T06:30:28.533Z,47.56
2018-07-17T06:31:28.557Z,47.44
2018-07-17T06:32:28.527Z,47.92
2018-07-17T06:33:28.473Z,47.72
2018-07-17T06:34:28.464Z,47.02
2018-07-17T06:35:28.457Z,46.83
2018-07-17T06:36:28.509Z,46.62
2018-07-17T06:37:37.153Z,46.19
2018-07-17T06:38:39.198Z,46.38
2018-07-17T06:39:37.588Z,45.89
2018-07-17T06:40:28.519Z,46.16
2018-07-17T06:41:28.508Z,45.56
2018-07-17T06:42:28.403Z,45.74
2018-07-17T06:43:28.370Z,45.15
2018-07-17T06:44:28.387Z,45.12
2018-07-17T06:45:37.904Z,44.73
2018-07-17T06:46:28.488Z,44.01
2018-07-17T06:47:28.421Z,43.79
2018-07-17T06:48:28.437Z,43.49
2018-07-17T06:49:36.490Z,43.40
2018-07-17T06:50:28.430Z,43.40
2018-07-17T06:51:28.352Z,43.49
2018-07-17T06:52:36.372Z,43.89
2018-07-17T06:53:28.264Z,44.01
2018-07-17T06:54:28.255Z,44.33
2018-07-17T06:55:28.244Z,44.33
2018-07-17T06:56:28.302Z,45.32
2018-07-17T06:57:28.305Z,44.83
2018-07-17T06:58:36.341Z,44.43
2018-07-17T06:59:41.352Z,45.12
2018-07-17T07:00:28.279Z,44.73
2018-07-17T07:01:28.332Z,43.82
2018-07-17T07:02:35.810Z,44.51
2018-07-17T07:03:28.167Z,44.11
2018-07-17T07:04:28.158Z,43.82
2018-07-17T07:05:29.015Z,43.91
2018-07-17T07:06:28.196Z,44.29
2018-07-17T07:07:28.119Z,43.87
2018-07-17T07:08:28.111Z,43.38
2018-07-17T07:09:28.100Z,42.44
2018-07-17T07:10:28.088Z,42.22
2018-07-17T07:11:28.168Z,41.44
2018-07-17T07:12:28.069Z,41.30
2018-07-17T07:13:28.095Z,40.01
2018-07-17T07:14:28.071Z,39.72
2018-07-17T07:15:28.040Z,39.32
2018-07-17T07:16:28.096Z,40.23
2018-07-17T07:17:28.022Z,41.14
2018-07-17T07:18:28.008Z,41.73
2018-07-17T07:19:27.997Z,41.63
2018-07-17T07:20:27.994Z,41.33
2018-07-17T07:21:28.041Z,41.52
2018-07-17T07:22:27.980Z,41.41
2018-07-17T07:23:28.044Z,41.31
2018-07-17T07:24:28.527Z,41.61
2018-07-17T07:25:27.939Z,41.41
2018-07-17T07:26:27.996Z,41.33
2018-07-17T07:27:27.914Z,41.41
2018-07-17T07:28:27.906Z,41.31
2018-07-17T07:29:27.894Z,39.99
2018-07-17T07:30:27.881Z,39.87
2018-07-17T07:31:27.939Z,39.36
2018-07-17T07:32:27.867Z,38.75
2018-07-17T07:33:27.856Z,38.64
2018-07-17T07:34:27.845Z,38.22
2018-07-17T07:35:27.833Z,37.83
2018-07-17T07:36:27.889Z,37.71
2018-07-17T07:37:27.901Z,36.80
2018-07-17T07:38:27.806Z,37.69
2018-07-17T07:39:27.799Z,36.69
2018-07-17T07:40:27.786Z,36.51
2018-07-17T07:41:27.840Z,37.20
2018-07-17T07:42:27.775Z,37.41
2018-07-17T07:43:27.758Z,36.72
2018-07-17T07:44:27.744Z,37.02
2018-07-17T07:45:28.521Z,37.04
2018-07-17T07:46:27.791Z,37.73
2018-07-17T07:47:27.721Z,37.55
2018-07-17T07:48:27.708Z,38.34
2018-07-17T07:49:27.732Z,38.06
2018-07-17T07:50:27.686Z,38.95
2018-07-17T07:51:27.755Z,38.35
2018-07-17T07:52:27.672Z,37.66
2018-07-17T07:53:27.668Z,38.06
2018-07-17T07:54:27.663Z,38.85
2018-07-17T07:55:27.664Z,37.87
2018-07-17T07:56:27.697Z,38.06
2018-07-17T07:57:27.614Z,38.95
2018-07-17T07:58:27.612Z,38.57
2018-07-17T07:59:27.614Z,38.67
2018-07-17T08:00:27.587Z,37.98
2018-07-17T08:01:27.648Z,38.57
2018-07-17T08:02:27.567Z,38.77
2018-07-17T08:03:27.613Z,38.98
2018-07-17T08:04:27.546Z,39.30
2018-07-17T08:05:27.537Z,39.99
2018-07-17T08:06:29.515Z,39.99
2018-07-17T08:07:27.587Z,39.50
2018-07-17T08:08:27.504Z,39.70
2018-07-17T08:09:27.493Z,40.17
2018-07-17T08:10:27.485Z,39.54
2018-07-17T08:11:27.477Z,38.02
2018-07-17T08:12:27.542Z,37.10
2018-07-17T08:13:27.457Z,36.30
2018-07-17T08:14:27.448Z,36.36
2018-07-17T08:15:27.437Z,34.97
2018-07-17T08:16:27.432Z,34.95
2018-07-17T08:17:27.485Z,34.64
2018-07-17T08:18:27.410Z,34.33
2018-07-17T08:19:27.399Z,33.92
2018-07-17T08:20:27.393Z,33.80
2018-07-17T08:21:27.387Z,34.31
2018-07-17T08:22:27.473Z,33.72
2018-07-17T08:23:27.362Z,33.43
2018-07-17T08:24:27.411Z,34.21
2018-07-17T08:25:27.349Z,34.31
2018-07-17T08:26:27.337Z,34.23
2018-07-17T08:27:27.591Z,34.54
2018-07-17T08:28:27.315Z,34.34
2018-07-17T08:29:27.327Z,34.05
2018-07-17T08:30:27.391Z,34.54
2018-07-17T08:31:27.290Z,34.36
2018-07-17T08:32:27.340Z,34.54
2018-07-17T08:33:27.270Z,33.94
2018-07-17T08:34:27.259Z,33.25
2018-07-17T08:35:27.259Z,34.51
2018-07-17T08:36:27.237Z,32.63
2018-07-17T08:37:27.298Z,32.81
2018-07-17T08:38:27.223Z,32.79
2018-07-17T08:39:27.212Z,32.63
2018-07-17T08:40:27.217Z,33.62
2018-07-17T08:41:27.222Z,34.54
2018-07-17T08:42:27.247Z,34.26
2018-07-17T08:43:27.327Z,34.47
2018-07-17T08:44:27.183Z,35.38
2018-07-17T08:45:27.179Z,34.97
2018-07-17T08:46:27.153Z,34.77
2018-07-17T08:47:27.195Z,34.74
2018-07-17T08:48:28.017Z,34.31
2018-07-17T08:49:27.116Z,32.73
2018-07-17T08:50:27.114Z,32.51
2018-07-17T08:51:27.098Z,32.40
2018-07-17T08:52:27.590Z,32.58
2018-07-17T08:53:27.078Z,31.00
2018-07-17T08:54:27.079Z,31.38
2018-07-17T08:55:27.064Z,31.16
2018-07-17T08:56:27.053Z,30.87
2018-07-17T08:57:27.126Z,31.25
2018-07-17T08:58:27.036Z,29.86
2018-07-17T08:59:27.033Z,30.74
2018-07-17T09:00:27.114Z,29.85
2018-07-17T09:01:27.014Z,30.63
2018-07-17T09:02:27.069Z,29.35
2018-07-17T09:03:26.996Z,29.93
2018-07-17T09:04:26.985Z,29.83
2018-07-17T09:05:26.980Z,29.83
2018-07-17T09:06:26.970Z,29.15
2018-07-17T09:07:27.025Z,29.44
2018-07-17T09:08:26.949Z,29.66
2018-07-17T09:09:27.518Z,29.06
2018-07-17T09:10:26.933Z,29.54
2018-07-17T09:11:26.932Z,29.92
2018-07-17T09:12:26.991Z,29.53
2018-07-17T09:13:26.908Z,29.03
2018-07-17T09:14:26.905Z,28.72
2018-07-17T09:15:26.897Z,27.75
2018-07-17T09:16:26.903Z,28.03
2018-07-17T09:17:26.940Z,27.54
2018-07-17T09:18:26.869Z,27.33
2018-07-17T09:19:26.863Z,27.43
2018-07-17T09:20:26.852Z,27.70
2018-07-17T09:21:26.903Z,27.22
2018-07-17T09:22:26.902Z,27.42
2018-07-17T09:23:26.832Z,27.31
2018-07-17T09:24:26.824Z,27.42
2018-07-17T09:25:26.816Z,27.11
2018-07-17T09:26:26.804Z,26.81
2018-07-17T09:27:26.865Z,26.61
2018-07-17T09:28:26.793Z,27.08
2018-07-17T09:29:26.783Z,26.21
2018-07-17T09:30:27.510Z,26.70
2018-07-17T09:31:26.768Z,26.89
2018-07-17T09:32:26.822Z,26.11
2018-07-17T09:33:26.783Z,26.60
2018-07-17T09:34:26.753Z,26.68
2018-07-17T09:35:26.742Z,26.87
2018-07-17T09:36:26.726Z,25.79
2018-07-17T09:37:26.786Z,25.99
2018-07-17T09:38:27.512Z,25.51
2018-07-17T09:39:26.706Z,25.88
2018-07-17T09:40:26.703Z,26.17
2018-07-17T09:41:26.692Z,26.25
2018-07-17T09:42:34.634Z,24.21
2018-07-17T09:43:26.675Z,24.19
2018-07-17T09:44:26.766Z,24.87
2018-07-17T09:45:26.666Z,23.70
2018-07-17T09:46:26.652Z,24.56
2018-07-17T09:47:26.646Z,23.50
2018-07-17T09:48:26.704Z,24.17
2018-07-17T09:49:26.634Z,24.07
2018-07-17T09:50:26.626Z,24.16
2018-07-17T09:51:26.618Z,23.08
2018-07-17T09:52:26.612Z,23.27
2018-07-17T09:53:26.667Z,23.16
2018-07-17T09:54:26.673Z,22.67
2018-07-17T09:55:26.587Z,23.77
2018-07-17T09:56:26.581Z,24.97
2018-07-17T09:57:26.575Z,25.49
2018-07-17T09:58:26.627Z,25.21
2018-07-17T09:59:26.561Z,25.92
2018-07-17T10:00:26.550Z,26.72
2018-07-17T10:01:26.540Z,26.84
2018-07-17T10:02:26.533Z,26.19
2018-07-17T10:03:27.121Z,27.47
2018-07-17T10:04:26.516Z,27.68
2018-07-17T10:05:26.508Z,27.48
2018-07-17T10:06:26.595Z,27.50
2018-07-17T10:07:26.493Z,27.70
2018-07-17T10:08:26.543Z,27.70
2018-07-17T10:09:26.477Z,28.59
2018-07-17T10:10:26.463Z,29.30
2018-07-17T10:11:26.460Z,29.20
2018-07-17T10:12:26.446Z,28.81
2018-07-17T10:13:26.551Z,29.50
2018-07-17T10:14:26.475Z,29.32
2018-07-17T10:15:26.418Z,29.24
2018-07-17T10:16:26.416Z,29.53
2018-07-17T10:17:26.408Z,29.83
2018-07-17T10:18:26.452Z,29.74
2018-07-17T10:19:26.390Z,30.61
2018-07-17T10:20:26.457Z,30.43
2018-07-17T10:21:26.361Z,31.11
2018-07-17T10:22:26.353Z,30.91
2018-07-17T10:23:26.410Z,30.82
2018-07-17T10:24:27.041Z,30.61
2018-07-17T10:25:26.330Z,29.93
2018-07-17T10:26:26.402Z,30.71
2018-07-17T10:27:26.305Z,30.91
2018-07-17T10:28:26.358Z,31.31
2018-07-17T10:29:26.286Z,31.31
2018-07-17T10:30:26.275Z,31.01
2018-07-17T10:31:26.267Z,30.80
2018-07-17T10:32:26.259Z,31.68
2018-07-17T10:33:26.345Z,30.69
2018-07-17T10:34:26.238Z,29.71
2018-07-17T10:35:33.794Z,30.38
2018-07-17T10:36:33.743Z,28.54
2018-07-17T10:37:35.144Z,27.14
2018-07-17T10:38:33.818Z,26.61
2018-07-17T10:39:26.194Z,25.23
2018-07-17T10:40:26.183Z,24.62
2018-07-17T10:41:26.172Z,24.04
2018-07-17T10:42:26.161Z,23.64
2018-07-17T10:43:34.333Z,24.30
2018-07-17T10:44:35.202Z,22.83
2018-07-17T10:45:26.141Z,23.19
2018-07-17T10:46:26.132Z,22.60
2018-07-17T10:47:34.783Z,21.44
2018-07-17T10:48:34.830Z,21.52
2018-07-17T10:49:26.111Z,22.57
2018-07-17T10:50:26.102Z,22.46
2018-07-17T10:51:26.094Z,20.73
2018-07-17T10:52:26.083Z,20.81
2018-07-17T10:53:26.140Z,20.62
2018-07-17T10:54:26.069Z,20.91
2018-07-17T10:55:26.058Z,21.09
2018-07-17T10:56:26.052Z,20.12
2018-07-17T10:57:26.044Z,20.02
2018-07-17T10:58:26.102Z,21.00
2018-07-17T10:59:26.033Z,20.60
2018-07-17T11:00:26.023Z,20.59
2018-07-17T11:01:26.016Z,19.81
2018-07-17T11:02:26.008Z,19.70
2018-07-17T11:03:26.068Z,19.88
2018-07-17T11:04:25.998Z,19.78
2018-07-17T11:05:26.822Z,19.98
2018-07-17T11:06:25.981Z,20.08
2018-07-17T11:07:25.973Z,19.90
2018-07-17T11:08:26.042Z,19.79
2018-07-17T11:09:25.959Z,20.07
2018-07-17T11:10:25.955Z,19.70
2018-07-17T11:11:25.945Z,20.47
2018-07-17T11:12:25.947Z,20.00
2018-07-17T11:13:25.994Z,20.28
2018-07-17T11:14:25.925Z,20.28
2018-07-17T11:15:25.919Z,19.70
2018-07-17T11:16:25.907Z,19.89
2018-07-17T11:17:25.905Z,19.60
2018-07-17T11:18:25.960Z,19.13
2018-07-17T11:19:25.893Z,20.77
2018-07-17T11:20:25.890Z,20.09
2018-07-17T11:21:25.879Z,20.25
2018-07-17T11:22:25.874Z,18.70
2018-07-17T11:23:25.940Z,18.40
2018-07-17T11:24:25.859Z,18.21
2018-07-17T11:25:25.851Z,18.49
2018-07-17T11:26:26.815Z,18.40
2018-07-17T11:27:25.842Z,18.98
2018-07-17T11:28:25.906Z,18.22
2018-07-17T11:29:25.825Z,18.11
2018-07-17T11:30:25.820Z,18.30
2018-07-17T11:31:25.817Z,18.02
2018-07-17T11:32:25.814Z,18.78
2018-07-17T11:33:25.877Z,18.40
2018-07-17T11:34:25.795Z,17.92
2018-07-17T11:35:25.795Z,18.22
2018-07-17T11:36:25.786Z,18.41
2018-07-17T11:37:25.778Z,18.80
2018-07-17T11:38:25.841Z,18.04
2018-07-17T11:39:25.768Z,18.89
2018-07-17T11:40:25.762Z,17.72
2018-07-17T11:41:25.757Z,18.02
2018-07-17T11:42:25.760Z,18.02
2018-07-17T11:43:25.809Z,17.35
2018-07-17T11:44:25.735Z,17.62
2018-07-17T11:45:25.729Z,17.52
2018-07-17T11:46:25.721Z,17.03
2018-07-17T11:47:27.305Z,16.65
2018-07-17T11:48:25.779Z,16.94
2018-07-17T11:49:26.304Z,16.65
2018-07-17T11:50:25.700Z,16.93
2018-07-17T11:51:25.694Z,17.31
2018-07-17T11:52:25.685Z,17.82
2018-07-17T11:53:25.720Z,18.13
2018-07-17T11:54:25.755Z,18.24
2018-07-17T11:55:25.665Z,18.04
2018-07-17T11:56:25.659Z,18.34
2018-07-17T11:57:25.656Z,18.16
2018-07-17T11:58:25.645Z,18.82
2018-07-17T11:59:25.780Z,17.67
2018-07-17T12:00:25.645Z,18.16
2018-07-17T12:01:25.625Z,18.68
2018-07-17T12:02:25.619Z,19.68
2018-07-17T12:03:25.619Z,19.09
2018-07-17T12:04:25.685Z,18.68
2018-07-17T12:05:25.652Z,18.18
2018-07-17T12:06:25.597Z,18.74
2018-07-17T12:07:25.586Z,18.35
2018-07-17T12:08:26.313Z,18.16
2018-07-17T12:09:25.637Z,18.91
2018-07-17T12:10:33.094Z,17.86
2018-07-17T12:11:25.559Z,18.44
2018-07-17T12:12:25.551Z,18.46
2018-07-17T12:13:25.550Z,18.15
2018-07-17T12:14:25.630Z,18.23
2018-07-17T12:15:25.531Z,18.12
2018-07-17T12:16:25.535Z,18.49
2018-07-17T12:17:25.523Z,17.43
2018-07-17T12:18:25.512Z,18.41
2018-07-17T12:19:25.569Z,18.34
2018-07-17T12:21:42.851Z,19.84
2018-07-17T12:22:42.773Z,19.25
2018-07-17T12:23:42.763Z,18.76
2018-07-17T12:24:42.821Z,18.26
2018-07-17T12:25:42.765Z,18.43
2018-07-17T12:26:42.743Z,18.70
2018-07-17T12:27:43.511Z,18.49
2018-07-17T12:28:42.732Z,17.70
2018-07-17T12:29:42.782Z,17.31
2018-07-17T12:30:42.715Z,17.52
2018-07-17T12:31:42.720Z,18.04
2018-07-17T12:32:42.704Z,18.74
2018-07-17T12:33:42.698Z,18.28
2018-07-17T12:34:42.757Z,19.17
2018-07-17T12:35:42.684Z,20.25
2018-07-17T12:36:42.683Z,20.04
2018-07-17T12:37:42.671Z,18.95
2018-07-17T12:38:42.659Z,19.13
2018-07-17T12:39:42.717Z,18.82
2018-07-17T12:40:42.644Z,18.05
2018-07-17T12:41:43.500Z,18.05
2018-07-17T12:42:42.633Z,18.65
2018-07-17T12:43:42.631Z,19.34
2018-07-17T12:44:42.681Z,19.32
2018-07-17T12:45:42.613Z,18.44
2018-07-17T12:46:42.602Z,18.52
2018-07-17T12:47:42.597Z,18.93
2018-07-17T12:48:42.594Z,18.66
2018-07-17T12:49:42.681Z,19.75
2018-07-17T12:50:42.572Z,20.16
2018-07-17T12:51:43.498Z,20.76
2018-07-17T12:52:42.557Z,20.59
2018-07-17T12:53:42.567Z,21.88